Time;durP1;ratioP1;P1;durP2;ratioP2;P2;SDS_P1;SDS_P2;PMS_P1;PMS_P2;Temp;Humidity;BMP_temperature;BMP_pressure;BME280_temperature;BME280_humidity;BME280_pressure;Samples;Min_cycle;Max_cycle;Signal;HPM_P1;HPM_P2
2022/06/09 00:01:40;;;;;;;1.30;0.80;;;15.90;31.80;;;;;;4995906;28;20463;-68
2022/06/09 00:04:11;;;;;;;1.30;0.80;;;15.90;31.90;;;;;;4996857;28;20923;-70
2022/06/09 00:06:41;;;;;;;1.97;0.80;;;15.90;32.10;;;;;;4996526;28;20416;-69
2022/06/09 00:09:07;;;;;;;4.53;1.30;;;15.90;32.50;;;;;;4995954;28;21286;-69
2022/06/09 00:11:37;;;;;;;1.60;1.00;;;15.90;32.50;;;;;;4995821;28;20928;-69
2022/06/09 00:14:05;;;;;;;1.50;0.80;;;15.90;32.80;;;;;;4995857;28;20476;-69
2022/06/09 00:16:31;;;;;;;1.53;1.00;;;16.00;32.60;;;;;;4995663;28;20826;-70
2022/06/09 00:18:56;;;;;;;1.40;0.80;;;16.00;33.00;;;;;;4995190;28;20479;-70
2022/06/09 00:21:23;;;;;;;1.50;1.10;;;16.00;32.80;;;;;;4993654;28;20208;-69
2022/06/09 00:23:49;;;;;;;1.90;0.90;;;16.00;33.00;;;;;;4995434;28;20515;-69
2022/06/09 00:26:14;;;;;;;1.50;1.00;;;16.00;32.80;;;;;;4996092;28;20933;-67
2022/06/09 00:28:40;;;;;;;1.20;0.60;;;15.90;33.60;;;;;;4996217;28;20416;-67
2022/06/09 00:31:05;;;;;;;1.50;1.10;;;16.00;32.90;;;;;;4996117;28;20200;-67
2022/06/09 00:33:31;;;;;;;1.40;0.80;;;15.90;33.30;;;;;;4995376;28;20212;-67
2022/06/09 00:35:57;;;;;;;1.70;1.17;;;15.90;33.70;;;;;;4995817;28;20648;-67
2022/06/09 00:38:22;;;;;;;1.83;0.80;;;15.90;34.00;;;;;;4995816;28;20186;-68
2022/06/09 00:40:48;;;;;;;1.30;0.77;;;15.80;35.30;;;;;;4996348;28;20209;-69
2022/06/09 00:43:13;;;;;;;1.40;0.70;;;15.50;35.80;;;;;;4996467;28;20650;-67
2022/06/09 00:45:44;;;;;;;2.00;0.90;;;15.50;36.00;;;;;;4996401;28;20177;-68
2022/06/09 00:48:52;;;;;;;2.47;1.40;;;15.60;35.90;;;;;;4996452;28;20204;-69
2022/06/09 00:51:30;;;;;;;1.60;0.80;;;15.60;35.40;;;;;;4997606;28;20816;-67
2022/06/09 00:54:08;;;;;;;1.57;0.93;;;15.60;35.90;;;;;;4996869;28;20477;-66
2022/06/09 00:56:37;;;;;;;2.23;1.30;;;15.70;36.10;;;;;;4996246;28;20429;-67
2022/06/09 00:59:02;;;;;;;1.90;1.00;;;15.70;36.60;;;;;;4995044;28;20424;-67
2022/06/09 01:01:28;;;;;;;1.70;0.97;;;15.70;36.20;;;;;;4994644;28;20594;-67
2022/06/09 01:04:02;;;;;;;5.07;1.27;;;15.80;36.10;;;;;;4994899;28;20181;-67
2022/06/09 01:06:33;;;;;;;1.50;0.87;;;15.80;36.10;;;;;;4995295;28;20204;-69
2022/06/09 01:09:12;;;;;;;1.53;1.00;;;15.90;36.90;;;;;;4996058;28;20464;-66
2022/06/09 01:11:39;;;;;;;1.50;1.03;;;15.90;36.20;;;;;;4996993;28;20419;-69
2022/06/09 01:14:06;;;;;;;1.50;1.00;;;15.80;35.80;;;;;;4996606;28;20427;-68
2022/06/09 01:16:48;;;;;;;6.73;2.47;;;15.80;36.10;;;;;;4996860;28;20428;-68
2022/06/09 01:19:39;;;;;;;2.30;1.13;;;15.80;36.10;;;;;;4994917;28;20447;-67
2022/06/09 01:22:16;;;;;;;3.93;1.23;;;15.80;37.20;;;;;;4996557;28;20481;-68
2022/06/09 01:25:19;;;;;;;7.13;1.40;;;15.80;37.10;;;;;;4997509;28;20430;-67
2022/06/09 01:28:15;;;;;;;2.07;1.00;;;15.80;37.40;;;;;;4997412;28;20503;-68
2022/06/09 01:30:56;;;;;;;3.10;1.10;;;15.70;38.00;;;;;;4998930;28;20465;-68
2022/06/09 01:33:55;;;;;;;3.20;1.30;;;15.70;37.90;;;;;;4998155;28;20414;-68
2022/06/09 01:36:32;;;;;;;1.57;1.13;;;15.70;38.10;;;;;;4995275;28;20434;-69
2022/06/09 01:39:02;;;;;;;2.30;1.13;;;15.60;38.10;;;;;;4997777;28;20406;-68
2022/06/09 01:41:27;;;;;;;2.10;1.17;;;15.40;39.80;;;;;;4997572;28;20458;-68
2022/06/09 01:43:55;;;;;;;1.57;1.10;;;15.40;39.80;;;;;;4998083;28;20498;-69
2022/06/09 01:46:35;;;;;;;2.30;0.80;;;15.40;39.80;;;;;;4997321;28;20204;-69
2022/06/09 01:49:12;;;;;;;1.40;0.80;;;15.40;39.40;;;;;;4998469;28;20411;-68
2022/06/09 01:51:41;;;;;;;1.50;0.63;;;15.40;39.60;;;;;;4996269;28;20421;-68
2022/06/09 01:54:13;;;;;;;2.30;1.30;;;15.40;40.30;;;;;;5000044;28;20430;-68
2022/06/09 01:56:50;;;;;;;2.37;1.10;;;15.50;39.60;;;;;;5001779;28;20546;-68
2022/06/09 01:59:24;;;;;;;1.57;0.90;;;15.40;39.50;;;;;;5001509;28;20872;-69
2022/06/09 02:01:57;;;;;;;1.70;1.30;;;15.40;39.60;;;;;;5001534;28;20502;-68
2022/06/09 02:04:49;;;;;;;1.97;1.20;;;15.30;39.50;;;;;;5000283;28;20440;-69
2022/06/09 02:07:16;;;;;;;1.90;1.10;;;15.20;40.10;;;;;;4999263;28;20510;-68
2022/06/09 02:09:42;;;;;;;1.20;0.60;;;15.20;40.10;;;;;;5026613;22;20588;-68
2022/06/09 02:12:15;;;;;;;2.80;1.03;;;15.20;40.10;;;;;;5014589;28;20919;-68
2022/06/09 02:14:47;;;;;;;1.57;0.80;;;15.10;40.00;;;;;;5016093;28;20425;-67
2022/06/09 02:17:13;;;;;;;1.70;1.10;;;15.20;39.30;;;;;;5015995;28;20497;-67
2022/06/09 02:19:41;;;;;;;1.73;0.93;;;15.10;39.60;;;;;;5016120;28;20465;-67
2022/06/09 02:22:08;;;;;;;1.73;0.80;;;15.20;39.30;;;;;;5015542;28;20954;-68
2022/06/09 02:24:35;;;;;;;1.20;0.63;;;15.20;38.90;;;;;;5015963;28;20415;-67
2022/06/09 02:27:01;;;;;;;1.67;0.90;;;15.30;38.30;;;;;;5018958;28;20496;-68
2022/06/09 02:29:27;;;;;;;1.43;0.77;;;15.10;38.30;;;;;;5019365;28;20418;-68
2022/06/09 02:31:53;;;;;;;1.30;0.70;;;15.10;38.50;;;;;;5017504;28;20417;-68
2022/06/09 02:34:19;;;;;;;1.50;0.80;;;15.10;38.80;;;;;;5019304;28;20417;-68
2022/06/09 02:36:45;;;;;;;1.40;0.87;;;15.10;39.20;;;;;;5019556;28;20424;-68
2022/06/09 02:39:11;;;;;;;1.50;0.90;;;15.10;39.60;;;;;;5019290;28;20418;-68
2022/06/09 02:41:37;;;;;;;1.30;0.60;;;15.00;39.20;;;;;;5019103;28;20292;-68
2022/06/09 02:44:03;;;;;;;1.30;0.70;;;15.00;39.30;;;;;;5019580;28;20725;-68
2022/06/09 02:46:28;;;;;;;1.60;0.80;;;15.00;39.40;;;;;;5019122;28;20422;-68
2022/06/09 02:48:54;;;;;;;1.70;1.10;;;15.00;39.60;;;;;;5019384;28;20476;-68
2022/06/09 02:51:31;;;;;;;1.30;0.73;;;15.00;39.70;;;;;;5018929;28;20261;-68
2022/06/09 02:53:59;;;;;;;2.27;0.90;;;15.00;39.00;;;;;;5016955;28;20181;-68
2022/06/09 02:56:25;;;;;;;1.60;0.80;;;14.90;39.30;;;;;;5015648;28;20453;-67
2022/06/09 02:58:52;;;;;;;1.77;0.80;;;14.90;39.50;;;;;;5015612;28;20764;-68
2022/06/09 03:01:17;;;;;;;1.30;0.80;;;14.90;39.30;;;;;;5015029;28;20493;-68
2022/06/09 03:03:43;;;;;;;2.27;0.90;;;14.80;38.70;;;;;;5014499;28;20456;-68
2022/06/09 03:06:09;;;;;;;1.30;0.70;;;14.80;38.60;;;;;;5015462;28;20479;-69
2022/06/09 03:08:34;;;;;;;2.23;1.80;;;14.80;38.60;;;;;;5015299;28;20183;-68
2022/06/09 03:11:00;;;;;;;1.63;0.83;;;14.70;39.00;;;;;;5015037;28;20213;-69
2022/06/09 03:13:27;;;;;;;1.60;0.70;;;14.70;39.80;;;;;;5014670;28;20411;-69
2022/06/09 03:15:53;;;;;;;1.60;0.97;;;14.70;40.40;;;;;;5015106;28;20207;-69
2022/06/09 03:18:19;;;;;;;1.37;0.80;;;14.70;40.40;;;;;;5014897;28;20420;-69
2022/06/09 03:20:46;;;;;;;1.70;0.80;;;14.70;40.40;;;;;;5014756;28;20232;-69
2022/06/09 03:23:11;;;;;;;1.40;0.80;;;14.70;39.50;;;;;;5014718;28;20418;-69
2022/06/09 03:25:37;;;;;;;1.50;0.80;;;14.60;39.10;;;;;;5015053;28;20414;-68
2022/06/09 03:28:04;;;;;;;2.23;0.80;;;14.70;39.70;;;;;;5016190;28;20232;-69
2022/06/09 03:30:29;;;;;;;1.47;0.97;;;14.70;38.40;;;;;;5014072;28;20495;-69
2022/06/09 03:32:55;;;;;;;1.30;0.70;;;14.80;38.30;;;;;;5014906;28;20425;-68
2022/06/09 03:35:20;;;;;;;1.70;0.83;;;14.70;38.30;;;;;;5014748;28;20748;-69
2022/06/09 03:37:46;;;;;;;1.50;0.63;;;14.70;39.50;;;;;;5014707;28;20236;-69
2022/06/09 03:40:16;;;;;;;2.67;0.93;;;14.70;39.20;;;;;;5014342;28;20207;-69
2022/06/09 03:42:42;;;;;;;1.77;1.10;;;14.70;40.00;;;;;;5014365;28;20207;-68
2022/06/09 03:45:08;;;;;;;1.20;0.60;;;14.70;39.50;;;;;;5014940;28;20417;-68
2022/06/09 03:47:33;;;;;;;1.33;0.90;;;14.70;39.70;;;;;;5014619;28;20611;-68
2022/06/09 03:49:59;;;;;;;1.30;0.80;;;14.70;39.50;;;;;;5014732;28;20502;-68
2022/06/09 03:52:24;;;;;;;1.40;0.90;;;14.70;39.00;;;;;;5014428;28;20273;-68
2022/06/09 03:54:50;;;;;;;1.63;0.87;;;14.70;37.90;;;;;;5014626;28;20214;-68
2022/06/09 03:57:16;;;;;;;1.60;1.07;;;14.80;37.80;;;;;;5014363;28;20198;-69
2022/06/09 03:59:41;;;;;;;1.60;1.17;;;14.80;37.70;;;;;;5014037;28;20252;-68
2022/06/09 04:02:07;;;;;;;3.00;1.17;;;14.80;37.50;;;;;;5013931;28;20234;-69
2022/06/09 04:04:32;;;;;;;3.57;1.60;;;14.80;38.20;;;;;;5014298;28;20248;-69
2022/06/09 04:06:59;;;;;;;1.60;1.00;;;14.80;38.30;;;;;;5014178;28;20295;-69
2022/06/09 04:09:24;;;;;;;2.80;1.13;;;14.80;37.30;;;;;;5014331;28;20202;-69
2022/06/09 04:11:50;;;;;;;1.50;1.00;;;14.70;38.20;;;;;;5014243;28;20888;-68
2022/06/09 04:14:16;;;;;;;2.00;1.07;;;14.70;38.50;;;;;;5014188;28;20179;-68
2022/06/09 04:16:44;;;;;;;2.83;1.03;;;14.80;38.60;;;;;;5013755;28;20520;-69
2022/06/09 04:19:12;;;;;;;1.47;0.90;;;14.80;38.00;;;;;;5014115;28;20201;-69
2022/06/09 04:21:39;;;;;;;1.60;1.00;;;14.90;37.80;;;;;;5012253;28;20996;-68
2022/06/09 04:24:05;;;;;;;1.83;1.00;;;15.00;37.10;;;;;;5014044;28;20424;-69
2022/06/09 04:26:34;;;;;;;1.60;1.20;;;15.00;37.00;;;;;;5014021;28;20765;-68
2022/06/09 04:29:00;;;;;;;6.23;1.40;;;15.00;36.80;;;;;;5013775;28;20599;-69
2022/06/09 04:31:25;;;;;;;4.70;1.33;;;15.10;36.70;;;;;;5013384;28;20504;-69
2022/06/09 04:33:51;;;;;;;2.03;1.17;;;15.10;35.80;;;;;;5013620;28;20184;-69
2022/06/09 04:36:19;;;;;;;1.83;1.20;;;15.10;35.50;;;;;;5013676;28;20193;-69
2022/06/09 04:38:45;;;;;;;2.43;1.00;;;15.10;36.40;;;;;;5013666;28;20423;-68
2022/06/09 04:41:12;;;;;;;2.10;1.30;;;15.10;36.60;;;;;;5013288;28;20470;-68
2022/06/09 04:43:44;;;;;;;1.97;1.23;;;15.10;36.80;;;;;;5013234;28;20505;-69
2022/06/09 04:46:11;;;;;;;1.50;1.00;;;15.10;36.10;;;;;;5013786;28;20414;-69
2022/06/09 04:48:38;;;;;;;3.40;1.80;;;15.10;35.60;;;;;;5013511;28;20912;-69
2022/06/09 04:51:08;;;;;;;2.13;1.13;;;15.10;35.50;;;;;;5013344;28;20805;-69
2022/06/09 04:53:34;;;;;;;2.17;1.43;;;15.10;35.50;;;;;;5013409;28;20421;-69
2022/06/09 04:55:59;;;;;;;1.73;1.20;;;15.20;35.60;;;;;;5013366;28;20431;-69
2022/06/09 04:58:26;;;;;;;2.13;0.87;;;15.20;35.60;;;;;;5014192;28;20513;-68
2022/06/09 05:00:52;;;;;;;1.87;1.40;;;15.20;35.60;;;;;;5013322;28;20195;-68
2022/06/09 05:03:17;;;;;;;1.70;1.20;;;15.10;36.10;;;;;;5013119;28;20494;-69
2022/06/09 05:05:45;;;;;;;2.53;1.53;;;15.10;35.80;;;;;;5012557;28;20427;-69
2022/06/09 05:08:12;;;;;;;3.27;1.63;;;14.90;36.70;;;;;;5013631;28;20249;-69
2022/06/09 05:10:39;;;;;;;4.03;1.50;;;15.00;35.70;;;;;;5012970;28;20996;-69
2022/06/09 05:13:06;;;;;;;1.60;0.90;;;15.00;36.20;;;;;;5012711;28;20437;-68
2022/06/09 05:15:34;;;;;;;1.50;0.90;;;14.90;36.60;;;;;;5013116;28;20918;-68
2022/06/09 05:18:01;;;;;;;2.30;1.30;;;14.90;36.00;;;;;;5013052;28;20903;-69
2022/06/09 05:20:27;;;;;;;3.80;1.27;;;15.00;36.00;;;;;;5012808;28;20443;-69
2022/06/09 05:22:52;;;;;;;2.73;1.70;;;15.00;35.40;;;;;;5012166;28;20473;-69
2022/06/09 05:25:18;;;;;;;2.77;1.77;;;15.00;36.40;;;;;;5012666;28;20437;-68
2022/06/09 05:27:44;;;;;;;2.00;1.67;;;15.00;36.50;;;;;;5010908;28;20187;-69
2022/06/09 05:30:23;;;;;;;2.90;1.30;;;15.10;36.00;;;;;;5012482;28;20513;-68
2022/06/09 05:32:49;;;;;;;2.93;1.70;;;15.30;35.70;;;;;;5012909;28;20457;-68
2022/06/09 05:35:16;;;;;;;4.07;1.53;;;15.30;35.70;;;;;;5012655;28;20986;-69
2022/06/09 05:45:58;;;;;;;1.90;1.60;;;16.10;32.20;;;;;;5012600;28;20793;-68
2022/06/09 05:48:23;;;;;;;2.30;1.53;;;16.30;31.20;;;;;;5012331;28;20403;-69
2022/06/09 05:50:51;;;;;;;2.03;1.83;;;16.50;30.00;;;;;;5012547;28;20422;-69
2022/06/09 05:53:16;;;;;;;2.13;1.90;;;16.70;28.40;;;;;;5012205;28;20172;-69
2022/06/09 05:55:42;;;;;;;2.53;1.97;;;17.00;28.00;;;;;;5012142;28;20494;-69
2022/06/09 05:58:08;;;;;;;4.00;3.00;;;17.30;28.50;;;;;;5012059;28;20222;-69
2022/06/09 06:00:33;;;;;;;3.30;3.00;;;17.70;27.90;;;;;;5011979;28;20196;-69
2022/06/09 06:02:59;;;;;;;5.43;5.03;;;18.40;26.00;;;;;;5011504;28;20676;-68
2022/06/09 06:08:09;;;;;;;5.27;4.97;;;19.40;24.80;;;;;;5011993;28;20262;-69
2022/06/09 06:10:34;;;;;;;6.10;5.80;;;20.00;22.80;;;;;;5012134;28;20545;-69
2022/06/09 06:13:00;;;;;;;7.13;6.73;;;20.60;20.50;;;;;;5011889;28;20175;-69
2022/06/09 06:15:25;;;;;;;9.20;8.70;;;21.40;19.60;;;;;;5012613;28;20657;-69
2022/06/09 06:17:54;;;;;;;8.57;8.23;;;22.20;18.10;;;;;;5012820;28;20259;-69
2022/06/09 06:20:20;;;;;;;10.30;9.90;;;23.00;18.30;;;;;;5012437;28;20200;-69
2022/06/09 06:22:46;;;;;;;11.10;10.50;;;23.50;15.50;;;;;;5011922;28;20468;-69
2022/06/09 06:25:12;;;;;;;11.30;10.80;;;23.40;14.40;;;;;;5011857;28;20482;-69
2022/06/09 06:27:38;;;;;;;10.17;9.77;;;23.00;14.10;;;;;;5011715;28;20681;-70
2022/06/09 06:30:04;;;;;;;10.53;10.13;;;22.80;14.70;;;;;;5011620;28;20195;-69
2022/06/09 06:32:30;;;;;;;10.60;9.97;;;22.70;15.40;;;;;;5011667;28;20461;-69
2022/06/09 06:34:55;;;;;;;10.50;9.90;;;22.40;14.70;;;;;;5011746;28;20884;-69
2022/06/09 06:37:21;;;;;;;10.90;10.50;;;22.10;15.40;;;;;;5011753;28;20188;-69
2022/06/09 06:39:46;;;;;;;10.70;10.30;;;22.10;14.90;;;;;;5013539;28;20239;-69
2022/06/09 06:42:12;;;;;;;11.23;10.53;;;22.10;13.70;;;;;;5014812;28;20266;-69
2022/06/09 06:44:37;;;;;;;10.80;10.40;;;21.90;14.70;;;;;;5015201;28;20184;-69
2022/06/09 06:47:03;;;;;;;10.90;10.40;;;21.70;14.70;;;;;;5015093;28;20235;-69
2022/06/09 06:49:28;;;;;;;10.30;9.80;;;21.60;15.10;;;;;;5015207;28;20176;-68
2022/06/09 06:51:54;;;;;;;10.07;9.67;;;21.60;15.30;;;;;;5014864;28;20186;-69
2022/06/09 06:54:19;;;;;;;9.43;9.03;;;21.70;15.40;;;;;;5015087;28;20183;-69
2022/06/09 06:56:45;;;;;;;10.80;10.30;;;21.80;14.90;;;;;;5014944;28;20188;-69
2022/06/09 06:59:11;;;;;;;10.20;9.80;;;21.70;14.00;;;;;;5014972;28;20180;-69
2022/06/09 07:01:36;;;;;;;10.10;9.70;;;21.90;15.20;;;;;;5014394;28;20204;-69
2022/06/09 07:04:03;;;;;;;10.70;10.10;;;21.90;14.50;;;;;;5014897;28;20654;-69
2022/06/09 07:06:28;;;;;;;11.07;10.47;;;22.30;14.90;;;;;;5015273;28;20638;-69
2022/06/09 07:08:54;;;;;;;11.77;11.30;;;23.30;14.30;;;;;;5015506;28;20415;-69
2022/06/09 07:11:20;;;;;;;14.27;12.77;;;24.10;9.80;;;;;;5016145;28;20261;-69
2022/06/09 07:13:46;;;;;;;13.50;12.90;;;24.20;10.90;;;;;;5014787;28;20214;-69
2022/06/09 07:16:12;;;;;;;12.87;12.37;;;24.40;10.60;;;;;;5013721;28;20430;-69
2022/06/09 07:18:39;;;;;;;13.00;12.40;;;24.60;10.80;;;;;;5014827;28;20457;-69
2022/06/09 07:21:05;;;;;;;12.77;12.27;;;24.60;10.70;;;;;;5014543;28;20474;-69
2022/06/09 07:23:31;;;;;;;13.80;13.10;;;24.70;10.40;;;;;;5013163;28;20986;-69
2022/06/09 07:25:58;;;;;;;12.63;12.13;;;24.60;9.80;;;;;;5014435;28;20411;-69
2022/06/09 07:28:25;;;;;;;13.20;12.70;;;24.70;9.70;;;;;;5014516;28;20458;-69
2022/06/09 07:30:56;;;;;;;12.50;12.00;;;24.80;8.50;;;;;;5014290;28;20430;-69
2022/06/09 07:33:26;;;;;;;13.23;12.67;;;24.70;8.70;;;;;;5014331;28;20428;-69
2022/06/09 07:35:53;;;;;;;13.90;13.10;;;25.00;9.10;;;;;;5014567;28;20407;-70
2022/06/09 07:38:19;;;;;;;13.90;13.00;;;25.40;8.30;;;;;;5014526;28;20417;-69
2022/06/09 07:40:45;;;;;;;14.20;13.60;;;25.70;8.30;;;;;;5014376;28;20422;-69
2022/06/09 07:43:11;;;;;;;13.60;12.97;;;25.90;7.00;;;;;;5014822;28;20795;-69
2022/06/09 07:45:38;;;;;;;12.93;12.43;;;25.60;7.60;;;;;;5014698;28;20465;-69
2022/06/09 07:48:04;;;;;;;12.40;11.90;;;25.20;7.90;;;;;;5014463;28;20519;-69
2022/06/09 07:50:31;;;;;;;12.83;12.23;;;24.70;8.60;;;;;;5014371;28;20940;-69
2022/06/09 07:52:57;;;;;;;13.10;12.23;;;24.40;8.70;;;;;;5014493;28;20430;-69
2022/06/09 07:55:24;;;;;;;12.63;12.00;;;24.40;9.00;;;;;;5014677;28;20434;-69
2022/06/09 07:57:51;;;;;;;12.93;12.33;;;25.20;8.50;;;;;;5014082;28;20168;-69
2022/06/09 08:00:18;;;;;;;13.10;12.50;;;25.90;7.40;;;;;;5014171;28;20458;-69
2022/06/09 08:02:43;;;;;;;14.17;13.43;;;25.90;6.80;;;;;;5013880;28;20470;-69
2022/06/09 08:05:10;;;;;;;13.00;12.50;;;26.00;5.50;;;;;;5014288;28;20415;-69
2022/06/09 08:07:36;;;;;;;14.80;13.67;;;25.20;6.10;;;;;;5013865;28;20672;-69
2022/06/09 08:10:04;;;;;;;13.97;13.07;;;25.70;6.20;;;;;;5033982;22;20986;-67
2022/06/09 08:12:30;;;;;;;13.70;13.00;;;25.90;5.00;;;;;;4994848;28;20424;-68
2022/06/09 08:14:55;;;;;;;13.13;12.63;;;25.40;6.20;;;;;;4995488;28;20462;-68
2022/06/09 08:17:22;;;;;;;13.60;12.90;;;25.20;7.30;;;;;;4995114;28;20191;-68
2022/06/09 08:19:48;;;;;;;13.40;12.90;;;25.60;5.50;;;;;;4994479;28;20180;-69
2022/06/09 08:22:14;;;;;;;14.33;13.63;;;25.90;5.00;;;;;;4994345;28;20460;-67
2022/06/09 08:24:40;;;;;;;13.60;13.10;;;25.90;5.20;;;;;;4994478;28;20177;-68
2022/06/09 08:27:06;;;;;;;14.43;13.83;;;26.20;5.00;;;;;;4994595;28;20414;-68
2022/06/09 08:29:31;;;;;;;13.93;13.33;;;26.10;4.10;;;;;;4994656;28;20540;-68
2022/06/09 08:31:57;;;;;;;13.70;13.20;;;25.90;5.00;;;;;;4994519;28;20443;-67
2022/06/09 08:34:23;;;;;;;14.10;13.30;;;25.40;4.10;;;;;;4995163;28;20185;-68
2022/06/09 08:36:49;;;;;;;14.00;13.30;;;25.00;4.40;;;;;;4995853;28;20181;-67
2022/06/09 08:39:14;;;;;;;13.63;13.10;;;24.90;3.90;;;;;;4995616;28;20582;-68
2022/06/09 08:42:07;;;;;;;14.53;13.70;;;24.30;5.40;;;;;;4995417;28;20681;-68
2022/06/09 08:44:39;;;;;;;13.13;12.60;;;23.70;6.20;;;;;;4995777;28;20515;-68
2022/06/09 08:47:27;;;;;;;13.73;13.00;;;22.90;6.70;;;;;;4995017;28;20412;-68
2022/06/09 08:50:02;;;;;;;13.57;13.07;;;22.40;7.80;;;;;;4994382;28;20415;-68
2022/06/09 08:52:30;;;;;;;13.87;12.70;;;22.10;7.50;;;;;;4993940;28;20418;-67
2022/06/09 08:54:57;;;;;;;13.00;12.40;;;22.00;7.60;;;;;;4994515;28;20423;-67
2022/06/09 08:57:30;;;;;;;12.00;11.47;;;22.00;8.60;;;;;;4994300;28;20427;-69
2022/06/09 08:59:57;;;;;;;11.97;11.47;;;21.90;7.00;;;;;;4994128;28;20475;-67
2022/06/09 09:02:36;;;;;;;12.10;11.43;;;21.50;8.60;;;;;;4992762;28;20550;-68
2022/06/09 09:05:23;;;;;;;12.17;11.57;;;21.70;8.70;;;;;;4993243;28;20555;-68
2022/06/09 09:07:51;;;;;;;12.23;11.73;;;21.90;8.80;;;;;;4994454;28;20435;-67
2022/06/09 09:10:28;;;;;;;13.33;12.33;;;22.00;7.70;;;;;;4994085;28;20447;-67
2022/06/09 09:13:12;;;;;;;11.50;11.10;;;21.80;7.30;;;;;;4993265;28;20424;-68
2022/06/09 09:15:47;;;;;;;12.43;11.83;;;21.20;8.40;;;;;;4994359;28;20412;-67
2022/06/09 09:18:28;;;;;;;11.73;11.03;;;21.40;8.50;;;;;;4992265;28;20418;-67
2022/06/09 09:20:57;;;;;;;12.10;11.60;;;21.50;9.40;;;;;;4993904;28;20431;-67
2022/06/09 09:23:38;;;;;;;12.80;12.30;;;21.60;8.70;;;;;;4994355;28;20893;-68
2022/06/09 09:26:33;;;;;;;13.00;12.40;;;21.90;8.50;;;;;;4994365;28;20459;-68
2022/06/09 09:29:16;;;;;;;13.33;12.70;;;22.10;8.00;;;;;;4994802;28;20423;-67
2022/06/09 09:31:50;;;;;;;13.97;12.97;;;22.30;7.20;;;;;;4994628;28;20475;-68
2022/06/09 09:34:21;;;;;;;13.40;12.60;;;22.40;6.10;;;;;;4994063;28;20897;-67
2022/06/09 09:36:50;;;;;;;13.63;13.03;;;22.60;6.10;;;;;;4994266;28;20933;-67
2022/06/09 09:39:42;;;;;;;12.40;11.90;;;22.80;5.10;;;;;;4993930;28;20609;-69
2022/06/09 09:42:16;;;;;;;13.23;12.73;;;22.80;5.80;;;;;;4993941;28;20481;-67
2022/06/09 09:44:59;;;;;;;12.90;12.40;;;23.00;6.10;;;;;;4993851;28;20917;-68
2022/06/09 09:47:26;;;;;;;14.93;13.77;;;22.80;4.90;;;;;;4993930;28;20407;-67
2022/06/09 09:49:56;;;;;;;13.53;12.83;;;23.20;5.10;;;;;;4994347;28;20423;-67
2022/06/09 09:52:44;;;;;;;13.70;13.10;;;23.40;5.30;;;;;;4994084;28;20431;-68
2022/06/09 09:55:30;;;;;;;13.90;13.30;;;23.50;5.30;;;;;;4995105;28;20853;-67
2022/06/09 09:58:18;;;;;;;13.30;12.80;;;23.30;4.70;;;;;;4994827;28;20418;-68
2022/06/09 10:00:46;;;;;;;13.03;12.43;;;23.10;5.10;;;;;;4994988;28;20443;-67
2022/06/09 10:09:01;;;;;;;13.27;12.60;;;22.70;4.50;;;;;;4993373;28;20535;-67
2022/06/09 10:14:28;;;;;;;12.50;12.00;;;22.30;4.50;;;;;;4995985;28;20466;-67
2022/06/09 10:16:54;;;;;;;13.53;12.90;;;22.60;4.10;;;;;;4996960;28;20415;-68
2022/06/09 10:19:24;;;;;;;13.20;12.70;;;22.70;4.20;;;;;;4997362;28;20428;-68
2022/06/09 10:22:14;;;;;;;13.67;12.97;;;22.80;5.10;;;;;;4996329;28;20883;-68
2022/06/09 10:24:53;;;;;;;12.00;11.20;;;22.60;4.80;;;;;;4996950;28;20432;-68
2022/06/09 10:27:23;;;;;;;12.00;11.50;;;23.00;4.10;;;;;;4997088;28;20407;-67
2022/06/09 10:30:01;;;;;;;12.17;11.53;;;23.20;3.70;;;;;;4997383;28;20411;-67
2022/06/09 10:32:35;;;;;;;13.33;12.80;;;23.50;3.40;;;;;;4997774;28;20739;-68
2022/06/09 10:35:21;;;;;;;12.80;12.40;;;23.70;2.40;;;;;;4998070;28;20473;-68
2022/06/09 10:37:58;;;;;;;13.53;12.70;;;24.10;2.00;;;;;;4987351;28;20441;-68
2022/06/09 10:40:47;;;;;;;12.70;12.20;;;24.50;1.40;;;;;;4997688;28;20585;-68
2022/06/09 10:43:38;;;;;;;13.20;12.63;;;24.70;1.70;;;;;;4995925;28;20995;-68
2022/06/09 10:46:26;;;;;;;13.40;12.90;;;24.50;1.90;;;;;;4997727;28;20443;-68
2022/06/09 10:55:18;;;;;;;13.20;12.70;;;22.00;2.70;;;;;;4996569;28;20459;-67
2022/06/09 10:58:02;;;;;;;13.37;12.87;;;22.30;4.00;;;;;;4996330;28;20423;-69
2022/06/09 11:00:32;;;;;;;12.67;12.10;;;21.60;3.00;;;;;;4995836;28;20423;-67
2022/06/09 11:03:00;;;;;;;13.87;13.17;;;21.60;4.50;;;;;;4995790;28;20451;-70
2022/06/09 11:05:36;;;;;;;13.53;12.93;;;21.80;4.20;;;;;;4996662;28;20443;-69
2022/06/09 11:08:13;;;;;;;13.67;12.87;;;22.10;4.20;;;;;;4996746;28;20498;-69
2022/06/09 11:10:57;;;;;;;13.70;13.10;;;22.40;3.60;;;;;;4996768;28;20447;-69
2022/06/09 11:13:25;;;;;;;12.17;11.67;;;22.70;2.60;;;;;;4995799;28;20785;-69
2022/06/09 11:16:16;;;;;;;12.40;11.90;;;22.90;2.90;;;;;;4997016;28;20420;-68
2022/06/09 11:18:53;;;;;;;13.57;13.07;;;23.00;2.70;;;;;;4996631;28;20412;-67
2022/06/09 11:21:31;;;;;;;13.13;12.50;;;23.10;2.10;;;;;;4995544;28;20466;-67
2022/06/09 11:24:08;;;;;;;12.27;11.77;;;23.20;1.40;;;;;;4995913;28;20940;-67
2022/06/09 11:26:41;;;;;;;14.07;13.03;;;23.30;2.30;;;;;;4996703;28;20411;-68
2022/06/09 11:29:09;;;;;;;13.87;13.00;;;23.70;1.40;;;;;;4997084;28;20420;-69
2022/06/09 11:31:38;;;;;;;13.13;12.63;;;23.80;1.70;;;;;;4996631;28;20444;-69
2022/06/09 11:34:12;;;;;;;12.80;12.30;;;23.90;2.00;;;;;;4996763;28;20798;-68
2022/06/09 11:36:59;;;;;;;13.50;12.90;;;24.00;3.10;;;;;;4996112;28;20514;-67
2022/06/09 11:39:42;;;;;;;14.13;13.53;;;24.00;3.40;;;;;;4996764;28;20979;-68
2022/06/09 11:42:41;;;;;;;13.60;13.10;;;23.90;2.90;;;;;;4995784;28;20451;-66
2022/06/09 11:45:26;;;;;;;13.23;12.70;;;23.80;3.70;;;;;;4995912;28;20632;-68
2022/06/09 11:47:55;;;;;;;13.30;12.70;;;23.70;3.10;;;;;;4996158;28;20412;-68
2022/06/09 11:50:26;;;;;;;13.37;12.77;;;23.80;3.00;;;;;;4996272;28;20446;-68
2022/06/09 11:52:52;;;;;;;13.73;13.13;;;23.90;2.80;;;;;;4996848;28;20423;-68
2022/06/09 11:55:57;;;;;;;14.10;13.30;;;23.80;2.90;;;;;;4995912;28;20433;-68
2022/06/09 11:58:50;;;;;;;14.13;13.47;;;23.50;3.40;;;;;;4996514;28;20184;-68
2022/06/09 12:01:16;;;;;;;13.97;13.43;;;23.30;3.90;;;;;;4935397;29;20823;-68
2022/06/09 12:03:50;;;;;;;13.50;12.80;;;23.20;7.80;;;;;;4983647;28;20420;-68
2022/06/09 12:06:16;;;;;;;13.20;12.47;;;22.90;9.60;;;;;;4995897;28;20423;-68
2022/06/09 12:09:07;;;;;;;12.37;11.87;;;22.70;9.40;;;;;;4995975;28;20427;-70
2022/06/09 12:11:57;;;;;;;13.40;12.80;;;22.60;9.40;;;;;;4986776;28;20274;-66
2022/06/09 12:14:36;;;;;;;13.47;12.97;;;22.40;8.50;;;;;;4995173;28;20420;-67
2022/06/09 12:17:18;;;;;;;13.80;12.90;;;22.30;7.90;;;;;;4994827;28;20419;-67
2022/06/09 12:19:57;;;;;;;12.57;11.87;;;22.10;8.10;;;;;;4994245;28;20431;-67
2022/06/09 12:22:41;;;;;;;13.73;12.93;;;22.20;8.30;;;;;;4994075;28;20878;-66
2022/06/09 12:25:12;;;;;;;13.23;12.63;;;22.10;7.90;;;;;;4994721;28;20463;-68
2022/06/09 12:27:37;;;;;;;13.10;12.50;;;22.20;7.80;;;;;;4994385;28;20423;-67
2022/06/09 12:30:03;;;;;;;12.40;11.80;;;22.10;7.30;;;;;;4994292;28;20428;-68
2022/06/09 12:32:43;;;;;;;13.03;12.50;;;22.30;7.50;;;;;;4993899;28;20344;-68
2022/06/09 12:35:22;;;;;;;14.47;13.67;;;22.50;6.80;;;;;;4994763;28;20239;-68
2022/06/09 12:37:57;;;;;;;13.40;12.80;;;22.90;6.70;;;;;;4995136;28;20435;-67
2022/06/09 12:40:31;;;;;;;12.80;12.30;;;23.00;6.70;;;;;;4995349;28;20432;-70
2022/06/09 12:43:03;;;;;;;14.33;13.63;;;23.30;7.20;;;;;;4994809;28;20964;-69
2022/06/09 12:45:34;;;;;;;13.67;12.93;;;23.20;5.30;;;;;;4994564;28;20422;-69
2022/06/09 12:48:16;;;;;;;13.50;13.00;;;23.00;5.80;;;;;;4994894;28;20419;-69
2022/06/09 12:50:51;;;;;;;13.00;12.50;;;23.10;5.80;;;;;;4994519;28;20424;-68
2022/06/09 12:53:39;;;;;;;13.30;12.60;;;22.90;6.00;;;;;;4994362;28;20415;-68
2022/06/09 12:56:58;;;;;;;14.30;13.50;;;23.00;6.20;;;;;;4994553;28;20432;-68
2022/06/09 12:59:28;;;;;;;13.33;12.83;;;23.30;6.40;;;;;;4951529;28;20801;-68
2022/06/09 13:02:10;;;;;;;12.93;12.37;;;23.20;5.80;;;;;;4994449;28;20826;-68
2022/06/09 13:04:43;;;;;;;12.80;12.30;;;23.30;6.70;;;;;;4995007;28;20412;-67
2022/06/09 13:07:32;;;;;;;13.00;12.50;;;23.40;5.80;;;;;;4995277;28;20901;-68
2022/06/09 13:10:18;;;;;;;14.30;13.60;;;23.40;5.70;;;;;;4995062;28;20502;-68
2022/06/09 13:12:51;;;;;;;13.10;12.50;;;23.60;5.40;;;;;;4994157;28;20518;-69
2022/06/09 13:15:43;;;;;;;12.77;12.27;;;23.20;6.30;;;;;;4993617;28;20418;-68
2022/06/09 13:18:14;;;;;;;12.20;11.70;;;22.40;8.20;;;;;;4986678;28;20531;-67
2022/06/09 13:20:46;;;;;;;11.63;11.20;;;22.10;9.00;;;;;;4993082;28;20479;-68
2022/06/09 13:23:13;;;;;;;11.63;11.20;;;21.30;11.30;;;;;;4992955;28;20498;-68
2022/06/09 13:25:40;;;;;;;11.17;10.77;;;21.00;11.90;;;;;;4993287;28;20447;-68
2022/06/09 13:28:36;;;;;;;10.90;10.37;;;20.90;11.80;;;;;;4993178;28;20417;-70